Clovis, CA (93613)

5:13 PM PDT on August 29, 2015 (GMT -0700)
Shaw & Temperance | | Change Station
CLOSE
Current Station
Personal Weather Station
Location: Clovis, CA
Elevation: 387 ft
Nearby Weather Stations

Elev 387 ft 36.80 °N, 119.66 °W | Updated 2 minutes ago

Mostly Cloudy
Mostly Cloudy
95.1 °F
Feels Like 92 °F
N
2.0
Wind Variable Wind from NW
Gusts 2.0 mph

Today
High -- | Low -- °F
--% Chance of Precip.
Yesterday
High -- | Low -- °F
Precip. -- in
6:27 AM 7:31 PM
Full, 100% visible
Pressure 29.86 in
Visibility 10.0 miles
Clouds Few 9000 ft
Few 15000 ft
Scattered Clouds 20000 ft
Mostly Cloudy 25000 ft
Heat Index 92 °F
Dew Point 50 °F
Humidity 22%
Rainfall 0.00 in
Snow Depth Not available.
UV 2 out of 12
Pollen 8.70 out of 12
Air Quality Not available.
Flu Activity Not available.
METAR KFAT 292353Z 33009KT 10SM FEW090 FEW150 SCT200 BKN250 34/12 A2988 RMK AO2 SLP112 FU HZ DSNT N-E-S MTNS PTLY OBSC T03440122 10350 20300 56017
Pressure 29.86 in
Visibility 10.0 miles
Clouds Few 9000 ft
Few 15000 ft
Scattered Clouds 20000 ft
Mostly Cloudy 25000 ft
Heat Index 92 °F
Dew Point 50 °F
Humidity 22%
Rainfall 0.00 in
Snow Depth Not available.
UV 2 out of 12
Pollen 8.70 out of 12
Air Quality Not available.
Flu Activity Not available.
METAR KFAT 292353Z 33009KT 10SM FEW090 FEW150 SCT200 BKN250 34/12 A2988 RMK AO2 SLP112 FU HZ DSNT N-E-S MTNS PTLY OBSC T03440122 10350 20300 56017

10-Day Weather Forecast

×

Almanac

Astronomy

Aug. 29, 2015 Rise Set
Actual Time
Civil Twilight
Nautical Twilight
Astronomical Twilight
Moon
Length of Visible Light
Length of Day
Tomorrow will be .
, % of the Moon is Illuminated

Today's Extremes

State Highs State Lows

Community

WunderPhotos

Upload Photos

1,850,790 photos uploaded!

WunderBlogs® & News

Nearby

Air Quality

  Air Quality AQ Index Pollutant
Not available.

Snow Depth

Station Depth Elevation

Earthquake Activity

City Distance Mag. Time & Date
Minimum magnitude displayed is 2.5.

Coastal Water Temperatures

Place Temperature

Stations

Nearby Weather Stations

Station Location Temp. Windchill Dew Point Humidity Wind Precip. Elev Updated Type